Weather at Albuquerque International Sunport

Public forecast

Using degrees Fahrenheit for public forecast. Weather courtesy of forecast.io.

Current aviation weather report (METAR) for Albuquerque International Sunport

Retrieved 2021/03/02 17:52 UTC (2 hours ago):

KABQ 021752Z 20003KT 10SM CLR 06/M10 A3026 RMK AO2 SLP241 T00561100 10056 21056 58007

Aviation forecast (TAF) for Albuquerque International Sunport

Retrieved 2021/03/02 18:22 UTC (1 hour ago):

TAF KABQ 021720Z 0218/0318 VRB06KT P6SM SKC FM022000 20007KT P6SM SKC FM030100 VRB06KT P6SM SKC FM031700 17007KT P6SM FEW250